Time;durP1;ratioP1;P1;durP2;ratioP2;P2;SDS_P1;SDS_P2;PMS_P1;PMS_P2;Temp;Humidity;BMP_temperature;BMP_pressure;BME280_temperature;BME280_humidity;BME280_pressure;Samples;Min_cycle;Max_cycle;Signal;HPM_P1;HPM_P2
2023/10/30 00:02:22;;;;;;;8.02;2.03;;;;;;;11.44;82.36;99747.81;5079462;28;20498;-69
2023/10/30 00:04:48;;;;;;;9.50;1.58;;;;;;;11.44;82.43;99755.75;5078751;28;20040;-69
2023/10/30 00:07:13;;;;;;;6.60;1.45;;;;;;;11.44;82.58;99752.25;5080018;28;20032;-69
2023/10/30 00:09:39;;;;;;;6.65;1.52;;;;;;;11.31;83.32;99759.25;5076419;28;20110;-69
2023/10/30 00:12:04;;;;;;;8.30;1.42;;;;;;;11.26;83.81;99756.03;5083149;28;20093;-69
2023/10/30 00:14:31;;;;;;;11.07;1.80;;;;;;;11.24;83.63;99758.78;5080614;28;20028;-69
2023/10/30 00:16:56;;;;;;;6.50;1.70;;;;;;;11.28;83.56;99767.34;5082010;28;20032;-69
2023/10/30 00:19:21;;;;;;;7.95;1.77;;;;;;;11.31;83.67;99767.19;5082061;28;20382;-68
2023/10/30 00:21:47;;;;;;;10.88;1.95;;;;;;;11.26;83.72;99778.03;5079905;28;20121;-69
2023/10/30 00:24:12;;;;;;;7.10;2.03;;;;;;;11.26;83.69;99788.63;5078957;28;20028;-68
2023/10/30 00:26:39;;;;;;;6.50;1.58;;;;;;;11.37;83.02;99786.16;5079592;28;20024;-69
2023/10/30 00:29:04;;;;;;;12.15;1.67;;;;;;;11.37;83.22;99790.63;5078208;28;20027;-69
2023/10/30 00:31:30;;;;;;;6.70;1.65;;;;;;;11.29;84.08;99796.38;5082113;28;20028;-69
2023/10/30 00:33:55;;;;;;;7.30;1.23;;;;;;;11.27;83.75;99800.06;5078537;28;20059;-69
2023/10/30 00:36:20;;;;;;;10.95;1.42;;;;;;;11.24;84.02;99799.31;5078570;28;20029;-69
2023/10/30 00:38:45;;;;;;;7.35;1.95;;;;;;;11.17;84.49;99800.59;5078298;28;20483;-69
2023/10/30 00:41:11;;;;;;;7.18;1.30;;;;;;;11.16;84.51;99809.47;5078043;28;20484;-69
2023/10/30 00:43:39;;;;;;;4.07;1.20;;;;;;;11.11;84.52;99811.56;5077963;28;20082;-69
2023/10/30 00:46:08;;;;;;;8.98;2.42;;;;;;;11.03;85.00;99808.50;5084803;28;20031;-69
2023/10/30 00:48:34;;;;;;;12.10;1.65;;;;;;;11.14;85.11;99818.44;5078509;28;20064;-69
2023/10/30 00:50:59;;;;;;;8.77;1.40;;;;;;;11.13;85.19;99809.66;5078292;28;20059;-69
2023/10/30 00:53:24;;;;;;;6.88;1.60;;;;;;;11.10;85.04;99817.78;5074126;28;20081;-69
2023/10/30 00:55:50;;;;;;;7.65;2.03;;;;;;;11.14;85.57;99827.22;5081118;28;20040;-69
2023/10/30 00:58:16;;;;;;;6.47;1.55;;;;;;;11.13;85.62;99829.97;5077529;28;20029;-69
2023/10/30 01:00:41;;;;;;;9.32;2.03;;;;;;;11.22;84.97;99830.28;5078282;28;20082;-69
2023/10/30 01:03:06;;;;;;;5.70;1.40;;;;;;;11.22;85.65;99845.31;5079454;28;20033;-69
2023/10/30 01:05:32;;;;;;;6.18;1.75;;;;;;;11.34;84.71;99838.44;5083622;28;20070;-69
2023/10/30 01:07:57;;;;;;;9.45;1.60;;;;;;;11.37;85.34;99846.19;5084842;28;20099;-69
2023/10/30 01:10:23;;;;;;;9.90;1.73;;;;;;;11.44;84.70;99842.25;5084340;28;20028;-69
2023/10/30 01:12:48;;;;;;;9.02;1.55;;;;;;;11.45;84.47;99844.78;5085766;28;20024;-69
2023/10/30 01:15:13;;;;;;;7.47;1.55;;;;;;;11.45;85.05;99851.88;5084398;28;20027;-69
2023/10/30 01:17:39;;;;;;;3.33;1.10;;;;;;;11.41;84.72;99850.34;5074188;28;20456;-69
2023/10/30 01:20:05;;;;;;;7.43;1.70;;;;;;;11.48;84.51;99859.66;5081901;28;20020;-70
2023/10/30 01:22:30;;;;;;;7.28;1.60;;;;;;;11.46;84.39;99861.53;5083362;28;20040;-69
2023/10/30 01:24:56;;;;;;;6.75;1.40;;;;;;;11.46;84.86;99856.22;5080300;28;20021;-69
2023/10/30 01:27:22;;;;;;;8.85;1.90;;;;;;;11.46;84.66;99859.72;5082143;28;20371;-69
2023/10/30 01:29:47;;;;;;;6.10;1.65;;;;;;;11.33;85.69;99852.59;5080702;28;20024;-69
2023/10/30 01:32:12;;;;;;;10.00;2.00;;;;;;;11.34;85.61;99849.03;5085370;28;20480;-69
2023/10/30 01:34:37;;;;;;;5.80;2.13;;;;;;;11.36;85.92;99844.50;5083990;28;20335;-69
2023/10/30 01:37:03;;;;;;;8.38;1.92;;;;;;;11.44;85.06;99848.38;5081592;28;20495;-69
2023/10/30 01:39:28;;;;;;;5.80;2.20;;;;;;;11.44;85.32;99845.75;5076245;28;20020;-70
2023/10/30 01:41:54;;;;;;;5.78;1.73;;;;;;;11.46;85.09;99845.63;5083717;28;20111;-69
2023/10/30 01:44:19;;;;;;;7.13;1.90;;;;;;;11.47;85.22;99849.97;5084641;28;20045;-70
2023/10/30 01:46:44;;;;;;;7.43;1.92;;;;;;;11.56;84.25;99844.13;5082992;28;20036;-70
2023/10/30 01:49:10;;;;;;;5.28;1.63;;;;;;;11.44;84.75;99851.03;5084781;28;20525;-70
2023/10/30 01:51:36;;;;;;;6.97;1.50;;;;;;;11.50;85.06;99847.16;5085159;28;20039;-70
2023/10/30 01:54:02;;;;;;;6.65;2.17;;;;;;;11.62;84.64;99842.94;5085083;28;20032;-69
2023/10/30 01:56:27;;;;;;;4.68;1.90;;;;;;;11.60;84.22;99847.47;5085200;28;20360;-70
2023/10/30 01:58:52;;;;;;;9.30;2.00;;;;;;;11.64;84.13;99857.78;5077011;28;20082;-69
2023/10/30 02:01:18;;;;;;;6.10;1.40;;;;;;;11.63;83.96;99864.03;5084631;28;20024;-69
2023/10/30 02:03:43;;;;;;;8.85;2.10;;;;;;;11.66;83.38;99865.66;5084841;28;20031;-70
2023/10/30 02:06:09;;;;;;;7.95;1.73;;;;;;;11.54;84.20;99866.38;5084526;28;20135;-69
2023/10/30 02:08:34;;;;;;;7.50;1.67;;;;;;;11.57;83.54;99869.69;5081989;28;20035;-69
2023/10/30 02:10:59;;;;;;;6.45;1.42;;;;;;;11.59;83.68;99865.16;5082161;28;20079;-70
2023/10/30 02:13:25;;;;;;;6.13;1.55;;;;;;;11.58;83.67;99857.31;5083801;28;20028;-70
2023/10/30 02:15:50;;;;;;;6.78;1.30;;;;;;;11.61;82.97;99865.03;5084600;28;20039;-69
2023/10/30 02:18:15;;;;;;;9.35;1.65;;;;;;;11.59;83.38;99862.50;5080681;28;20442;-69
2023/10/30 02:20:41;;;;;;;8.07;1.88;;;;;;;11.55;83.26;99855.69;5084969;28;20051;-70
2023/10/30 02:23:06;;;;;;;6.18;1.50;;;;;;;11.57;83.53;99859.09;5084889;28;20065;-70
2023/10/30 02:25:34;;;;;;;13.88;1.90;;;;;;;11.57;83.51;99863.56;5076277;28;20027;-70
2023/10/30 02:28:00;;;;;;;4.60;1.33;;;;;;;11.56;83.09;99864.47;5085144;28;20466;-70
2023/10/30 02:30:26;;;;;;;5.63;1.40;;;;;;;11.55;83.33;99857.47;5083097;28;20115;-70
2023/10/30 02:32:51;;;;;;;7.13;1.55;;;;;;;11.66;82.78;99861.19;5084238;28;20051;-69
2023/10/30 02:35:17;;;;;;;10.38;1.40;;;;;;;11.65;82.69;99858.63;5084537;28;20028;-70
2023/10/30 02:37:44;;;;;;;8.25;1.55;;;;;;;11.62;82.41;99858.84;5083873;28;20471;-70
2023/10/30 02:40:10;;;;;;;7.82;2.65;;;;;;;11.58;83.16;99852.84;5081179;28;20031;-70
2023/10/30 02:42:36;;;;;;;5.28;1.40;;;;;;;11.52;83.65;99852.34;5081121;28;20035;-70
2023/10/30 02:45:03;;;;;;;4.90;1.30;;;;;;;11.40;83.52;99849.50;5083032;28;20074;-70
2023/10/30 02:47:29;;;;;;;7.88;1.50;;;;;;;11.33;83.95;99845.53;5081527;28;20024;-70
2023/10/30 02:49:54;;;;;;;8.05;1.60;;;;;;;11.37;84.11;99838.25;5085254;28;20031;-69
2023/10/30 02:52:20;;;;;;;9.23;1.85;;;;;;;11.38;84.76;99847.91;5085068;28;20079;-70
2023/10/30 02:54:45;;;;;;;4.53;1.20;;;;;;;11.35;84.66;99845.44;5084106;28;20024;-69
2023/10/30 02:57:10;;;;;;;6.43;1.30;;;;;;;11.32;84.61;99845.59;5082010;28;20107;-69
2023/10/30 02:59:36;;;;;;;14.05;1.58;;;;;;;11.37;84.21;99849.69;5075837;28;20034;-70
2023/10/30 03:02:02;;;;;;;7.35;1.45;;;;;;;11.40;84.34;99852.16;5081093;28;20134;-69
2023/10/30 03:04:28;;;;;;;7.22;1.33;;;;;;;11.40;84.37;99848.66;5083632;28;20079;-69
2023/10/30 03:06:53;;;;;;;6.78;1.30;;;;;;;11.44;84.37;99844.91;5084129;28;20059;-69
2023/10/30 03:09:18;;;;;;;10.32;1.75;;;;;;;11.43;84.64;99844.03;5075729;28;20039;-69
2023/10/30 03:11:44;;;;;;;7.05;1.42;;;;;;;11.48;84.06;99843.78;5080938;28;20415;-68
2023/10/30 03:14:10;;;;;;;9.07;1.70;;;;;;;11.48;84.36;99854.34;5080844;28;20028;-69
2023/10/30 03:16:35;;;;;;;8.05;1.60;;;;;;;11.47;84.51;99850.88;5083917;28;20043;-69
2023/10/30 03:19:01;;;;;;;8.30;1.50;;;;;;;11.46;84.60;99850.94;5080964;28;20472;-69
2023/10/30 03:21:26;;;;;;;6.97;1.50;;;;;;;11.49;84.57;99858.69;5081476;28;20028;-69
2023/10/30 03:23:51;;;;;;;8.95;1.60;;;;;;;11.52;84.71;99860.28;5081261;28;20032;-69
2023/10/30 03:26:17;;;;;;;6.90;1.33;;;;;;;11.48;84.46;99863.16;5080363;28;20380;-69
2023/10/30 03:28:42;;;;;;;7.55;1.92;;;;;;;11.49;84.29;99869.28;5080198;28;20480;-69
2023/10/30 03:31:09;;;;;;;4.35;1.20;;;;;;;11.49;84.93;99874.59;5080542;28;20476;-68
2023/10/30 03:33:35;;;;;;;7.55;1.50;;;;;;;11.51;84.72;99867.38;5080589;28;20028;-69
2023/10/30 03:36:02;;;;;;;9.07;1.40;;;;;;;11.46;84.56;99867.66;5083557;28;20020;-69
2023/10/30 03:38:27;;;;;;;6.00;1.60;;;;;;;11.43;84.85;99867.88;5083547;28;20071;-69
2023/10/30 03:40:52;;;;;;;11.35;1.73;;;;;;;11.39;85.18;99860.19;5082577;28;20456;-70
2023/10/30 03:43:18;;;;;;;5.30;1.58;;;;;;;11.39;85.54;99860.19;5082930;28;20024;-70
2023/10/30 03:45:44;;;;;;;7.50;1.38;;;;;;;11.41;85.31;99858.28;5076604;28;20025;-69
2023/10/30 03:48:09;;;;;;;8.77;2.83;;;;;;;11.36;85.29;99863.00;5083284;28;20055;-70
2023/10/30 03:50:34;;;;;;;3.03;1.38;;;;;;;11.35;85.36;99858.66;5082646;28;20055;-70
2023/10/30 03:53:00;;;;;;;7.00;1.27;;;;;;;11.29;85.51;99862.53;5079747;28;20086;-69
2023/10/30 03:55:25;;;;;;;10.77;1.75;;;;;;;11.22;86.10;99851.44;5079996;28;20157;-69
2023/10/30 03:57:50;;;;;;;6.82;1.30;;;;;;;11.22;85.43;99862.03;5080066;28;20071;-70
2023/10/30 04:00:16;;;;;;;2.67;1.10;;;;;;;11.17;86.33;99858.78;5084941;28;20128;-70
2023/10/30 04:02:41;;;;;;;7.50;1.50;;;;;;;11.11;86.33;99864.47;5079366;28;20028;-70
2023/10/30 04:05:07;;;;;;;6.68;1.48;;;;;;;11.11;87.07;99872.41;5080267;28;20041;-69
2023/10/30 04:07:33;;;;;;;5.40;1.77;;;;;;;11.11;87.19;99858.31;5081668;28;20028;-70
2023/10/30 04:09:58;;;;;;;8.85;1.60;;;;;;;11.09;86.91;99868.97;5082979;28;20528;-70
2023/10/30 04:12:23;;;;;;;6.78;1.20;;;;;;;11.08;87.21;99859.34;5080770;28;20093;-70
2023/10/30 04:14:49;;;;;;;5.32;1.50;;;;;;;11.07;87.80;99859.44;5079710;28;20032;-70
2023/10/30 04:17:15;;;;;;;10.75;1.73;;;;;;;11.08;87.58;99854.03;5080719;28;20031;-69
2023/10/30 04:19:40;;;;;;;9.70;1.50;;;;;;;11.05;87.33;99864.81;5079621;28;20405;-70
2023/10/30 04:22:05;;;;;;;9.02;1.50;;;;;;;11.03;87.38;99864.03;5081017;28;20032;-70
2023/10/30 04:24:32;;;;;;;6.97;1.55;;;;;;;11.05;87.42;99854.25;5079376;28;20115;-70
2023/10/30 04:26:57;;;;;;;10.95;1.80;;;;;;;11.02;87.59;99857.06;5078761;28;20051;-69
2023/10/30 04:29:22;;;;;;;6.45;1.27;;;;;;;11.04;87.25;99862.25;5079677;28;20098;-69
2023/10/30 04:31:48;;;;;;;8.95;1.25;;;;;;;11.01;87.35;99863.28;5081279;28;20071;-69
2023/10/30 04:34:13;;;;;;;8.90;1.70;;;;;;;10.95;88.55;99871.56;5081041;28;20425;-70
2023/10/30 04:36:38;;;;;;;8.70;1.77;;;;;;;11.01;87.49;99870.38;5082370;28;20028;-70
2023/10/30 04:39:08;;;;;;;5.32;1.10;;;;;;;10.94;87.82;99870.72;5079452;28;20472;-70
2023/10/30 04:41:34;;;;;;;6.80;1.25;;;;;;;10.86;87.76;99869.44;5083369;28;20086;-69
2023/10/30 04:43:59;;;;;;;3.72;1.35;;;;;;;10.84;87.98;99874.81;5086686;28;20023;-69
2023/10/30 04:46:24;;;;;;;10.18;1.70;;;;;;;10.82;88.59;99874.06;5086895;28;20350;-70
2023/10/30 04:48:50;;;;;;;6.55;1.35;;;;;;;10.79;88.05;99873.38;5085277;28;20032;-69
2023/10/30 04:51:15;;;;;;;5.55;1.52;;;;;;;10.75;88.41;99872.69;5081203;28;20455;-69
2023/10/30 04:53:40;;;;;;;6.68;1.45;;;;;;;10.70;89.00;99869.47;5077538;28;20028;-69
2023/10/30 04:56:07;;;;;;;10.40;2.03;;;;;;;10.68;89.36;99874.00;5086891;28;20373;-69
2023/10/30 04:58:33;;;;;;;6.68;1.33;;;;;;;10.62;88.72;99867.22;5087136;28;20353;-69
2023/10/30 05:00:59;;;;;;;4.43;1.23;;;;;;;10.60;88.33;99865.63;5083858;28;20038;-69
2023/10/30 05:03:24;;;;;;;7.95;1.65;;;;;;;10.56;88.73;99861.44;5082630;28;20028;-69
2023/10/30 05:05:49;;;;;;;5.57;1.73;;;;;;;10.53;88.65;99872.19;5083330;28;20420;-69
2023/10/30 05:08:15;;;;;;;5.35;1.27;;;;;;;10.48;89.41;99864.50;5086433;28;20024;-69
2023/10/30 05:10:40;;;;;;;7.53;1.20;;;;;;;10.47;89.58;99861.00;5087812;28;20060;-69
2023/10/30 05:13:06;;;;;;;9.55;1.42;;;;;;;10.49;89.76;99855.63;5084210;28;20021;-69
2023/10/30 05:15:31;;;;;;;10.10;1.55;;;;;;;10.49;89.52;99850.34;5086227;28;20028;-69
2023/10/30 05:17:56;;;;;;;10.50;2.65;;;;;;;10.54;90.38;99864.19;5080493;28;20036;-69
2023/10/30 05:20:22;;;;;;;11.60;1.98;;;;;;;10.57;89.92;99865.78;5090482;28;20035;-69
2023/10/30 05:22:47;;;;;;;7.38;1.73;;;;;;;10.60;89.95;99868.28;5082733;28;20107;-69
2023/10/30 05:25:12;;;;;;;6.80;1.52;;;;;;;10.61;89.31;99867.31;5087036;28;20031;-69
2023/10/30 05:27:38;;;;;;;7.15;1.35;;;;;;;10.55;89.50;99871.19;5082832;28;20017;-69
2023/10/30 05:30:03;;;;;;;9.63;1.75;;;;;;;10.49;90.56;99863.56;5080348;28;20024;-69
2023/10/30 05:32:29;;;;;;;6.28;1.50;;;;;;;10.49;89.84;99863.56;5085339;28;20515;-69
2023/10/30 05:34:56;;;;;;;10.40;2.03;;;;;;;10.50;90.31;99865.28;5086077;28;20059;-68
2023/10/30 05:37:22;;;;;;;7.05;1.52;;;;;;;10.48;90.14;99848.66;5085312;28;20437;-69
2023/10/30 05:39:49;;;;;;;8.43;1.63;;;;;;;10.51;90.46;99839.72;5078972;28;20028;-69
2023/10/30 05:42:15;;;;;;;11.60;1.65;;;;;;;10.54;90.36;99839.53;5082605;28;20047;-69
2023/10/30 05:44:40;;;;;;;6.63;1.45;;;;;;;10.53;90.65;99851.88;5082638;28;20096;-69
2023/10/30 05:47:06;;;;;;;7.38;1.60;;;;;;;10.57;90.58;99855.22;5082720;28;20258;-69
2023/10/30 05:49:31;;;;;;;5.75;1.40;;;;;;;10.57;90.40;99847.28;5082134;28;20078;-69
2023/10/30 05:51:57;;;;;;;5.78;1.65;;;;;;;10.54;90.15;99848.34;5084661;28;20089;-69
2023/10/30 05:54:23;;;;;;;9.10;1.65;;;;;;;10.51;90.32;99852.94;5082015;28;20024;-68
2023/10/30 05:56:48;;;;;;;6.43;1.38;;;;;;;10.50;91.28;99848.59;5083930;28;20044;-68
2023/10/30 05:59:14;;;;;;;10.90;1.48;;;;;;;10.48;89.98;99846.00;5083447;28;20023;-68
2023/10/30 06:01:39;;;;;;;6.78;1.45;;;;;;;10.46;90.39;99842.63;5082321;28;20016;-69
2023/10/30 06:04:05;;;;;;;9.15;1.75;;;;;;;10.43;90.29;99845.41;5084426;28;20024;-69
2023/10/30 06:06:30;;;;;;;6.80;1.48;;;;;;;10.42;90.38;99844.56;5085603;28;20020;-68
2023/10/30 06:08:56;;;;;;;9.38;2.13;;;;;;;10.41;90.76;99842.03;5084230;28;20335;-69
2023/10/30 06:11:21;;;;;;;9.93;1.83;;;;;;;10.48;89.75;99838.09;5082015;28;20036;-69
2023/10/30 06:13:47;;;;;;;3.85;1.40;;;;;;;10.46;89.71;99840.81;5081364;28;20071;-69
2023/10/30 06:16:18;;;;;;;9.02;1.52;;;;;;;10.41;89.73;99848.16;5084036;28;20031;-69
2023/10/30 06:18:45;;;;;;;10.07;1.55;;;;;;;10.40;89.99;99848.25;5084956;28;20032;-69
2023/10/30 06:21:17;;;;;;;8.50;1.40;;;;;;;10.27;90.87;99844.56;5082842;28;20497;-69
2023/10/30 06:23:42;;;;;;;6.15;1.77;;;;;;;10.35;90.90;99859.06;5081586;28;20108;-69
2023/10/30 06:26:09;;;;;;;8.18;1.80;;;;;;;10.33;89.76;99860.94;5081573;28;20106;-68
2023/10/30 06:28:35;;;;;;;5.72;1.80;;;;;;;10.31;90.07;99872.53;5081854;28;20032;-69
2023/10/30 06:31:00;;;;;;;7.00;2.10;;;;;;;10.26;90.95;99871.91;5072903;28;20028;-69
2023/10/30 06:33:26;;;;;;;6.28;1.33;;;;;;;10.29;90.79;99890.25;5083230;28;20028;-69
2023/10/30 06:36:00;;;;;;;9.15;1.92;;;;;;;10.30;90.64;99887.50;5084735;28;20039;-69
2023/10/30 06:38:27;;;;;;;9.38;1.45;;;;;;;10.32;90.71;99884.78;5083877;28;20388;-69
2023/10/30 06:40:53;;;;;;;7.35;1.83;;;;;;;10.24;90.88;99890.47;5077269;28;20059;-70
2023/10/30 06:43:18;;;;;;;6.32;1.48;;;;;;;10.29;90.52;99899.00;5084142;28;20067;-70
2023/10/30 06:45:43;;;;;;;7.03;1.50;;;;;;;10.28;89.96;99905.25;5077025;28;20031;-70
2023/10/30 06:48:09;;;;;;;6.50;1.63;;;;;;;10.27;90.03;99908.81;5084641;28;20027;-70
2023/10/30 06:50:34;;;;;;;9.77;1.70;;;;;;;10.27;90.33;99908.81;5083822;28;20020;-70
2023/10/30 06:52:59;;;;;;;6.32;1.60;;;;;;;10.14;90.86;99910.38;5078652;28;20047;-69
2023/10/30 06:55:25;;;;;;;7.10;1.70;;;;;;;10.21;90.25;99914.38;5084215;28;20471;-69
2023/10/30 06:57:50;;;;;;;7.15;1.63;;;;;;;10.12;91.08;99914.91;5082566;28;20476;-70
2023/10/30 07:00:18;;;;;;;6.00;1.40;;;;;;;10.13;91.68;99913.97;5077749;28;20036;-70
2023/10/30 07:02:44;;;;;;;5.13;2.30;;;;;;;10.15;91.49;99920.00;5080648;28;20032;-70
2023/10/30 07:05:09;;;;;;;8.20;1.98;;;;;;;10.16;91.59;99926.97;5083943;28;20085;-70
2023/10/30 07:07:34;;;;;;;9.93;1.45;;;;;;;10.17;91.86;99916.34;5084459;28;20091;-70
2023/10/30 07:10:01;;;;;;;5.63;1.35;;;;;;;10.20;91.69;99912.69;5079418;28;20033;-69
2023/10/30 07:12:26;;;;;;;4.30;1.45;;;;;;;10.32;91.83;99921.78;5083980;28;20531;-69
2023/10/30 07:14:51;;;;;;;6.60;1.70;;;;;;;10.34;91.07;99910.19;5082394;28;20111;-69
2023/10/30 07:17:16;;;;;;;10.27;1.50;;;;;;;10.36;91.42;99916.25;5081791;28;20077;-69
2023/10/30 07:19:42;;;;;;;5.53;1.50;;;;;;;10.40;91.31;99919.59;5081033;28;20055;-69
2023/10/30 07:22:07;;;;;;;3.63;1.30;;;;;;;10.43;91.27;99916.75;5081232;28;20024;-69
2023/10/30 07:24:32;;;;;;;5.32;1.42;;;;;;;10.47;91.48;99918.31;5079401;28;20024;-69
2023/10/30 07:26:58;;;;;;;8.48;1.38;;;;;;;10.49;91.32;99911.13;5080453;28;20031;-69
2023/10/30 07:29:24;;;;;;;8.82;1.85;;;;;;;10.50;91.25;99920.78;5082161;28;20025;-69
2023/10/30 07:31:49;;;;;;;7.15;1.73;;;;;;;10.52;91.40;99924.19;5077293;28;20039;-69
2023/10/30 07:34:15;;;;;;;8.32;1.83;;;;;;;10.48;91.70;99927.94;5083201;28;20024;-69
2023/10/30 07:36:41;;;;;;;10.23;1.90;;;;;;;10.58;91.10;99934.41;5079111;28;20471;-69
2023/10/30 07:39:07;;;;;;;6.18;1.50;;;;;;;10.66;91.53;99934.84;5080615;28;20034;-69
2023/10/30 07:41:33;;;;;;;7.35;1.80;;;;;;;10.78;90.68;99933.34;5074193;28;20032;-69
2023/10/30 07:43:59;;;;;;;8.90;2.42;;;;;;;10.93;91.25;99944.84;5083210;28;20111;-69
2023/10/30 07:46:25;;;;;;;7.13;1.30;;;;;;;11.03;90.65;99950.47;5082755;28;20039;-69
2023/10/30 07:48:50;;;;;;;12.20;2.03;;;;;;;11.14;90.13;99938.31;5071796;28;20020;-68
2023/10/30 07:51:15;;;;;;;5.75;1.33;;;;;;;11.37;89.28;99944.09;5078052;28;20023;-68
2023/10/30 07:53:41;;;;;;;12.75;2.20;;;;;;;11.54;88.68;99925.47;5074539;28;20024;-68
2023/10/30 07:56:06;;;;;;;11.25;2.00;;;;;;;11.87;87.87;99932.38;5083339;28;20032;-68
2023/10/30 07:58:32;;;;;;;6.05;1.58;;;;;;;12.57;85.53;99930.69;5083454;28;20485;-68
2023/10/30 08:00:57;;;;;;;7.15;1.52;;;;;;;12.87;82.64;99940.28;5074462;28;20553;-68
2023/10/30 08:03:23;;;;;;;11.20;1.60;;;;;;;12.95;82.64;99941.50;5082665;28;20485;-69
2023/10/30 08:05:48;;;;;;;4.97;1.52;;;;;;;13.16;81.34;99939.28;5082705;28;20352;-69
2023/10/30 08:08:17;;;;;;;5.50;1.35;;;;;;;13.33;79.81;99932.03;5080078;28;20048;-69
2023/10/30 08:10:44;;;;;;;4.95;1.50;;;;;;;13.47;79.69;99937.25;5084551;28;20035;-69
2023/10/30 08:13:09;;;;;;;5.65;1.60;;;;;;;13.58;78.98;99948.03;5080211;28;20024;-69
2023/10/30 08:15:34;;;;;;;7.57;1.83;;;;;;;14.26;76.33;99947.78;5079052;28;20095;-70
2023/10/30 08:18:02;;;;;;;7.75;1.63;;;;;;;14.73;73.99;99950.72;5086154;28;20035;-71
2023/10/30 08:20:28;;;;;;;9.45;1.67;;;;;;;14.94;72.91;99946.53;5076707;28;20086;-69
2023/10/30 08:22:53;;;;;;;7.00;1.38;;;;;;;15.10;71.95;99940.09;5080023;28;20476;-70
2023/10/30 08:25:18;;;;;;;6.03;1.52;;;;;;;14.89;72.25;99942.50;5083729;28;20039;-69
2023/10/30 08:27:44;;;;;;;9.00;1.48;;;;;;;15.05;72.13;99943.06;5079606;28;20672;-69
2023/10/30 08:30:09;;;;;;;8.10;1.80;;;;;;;15.24;71.52;99942.56;5079315;28;20035;-70
2023/10/30 08:32:35;;;;;;;7.28;1.70;;;;;;;15.23;71.00;99943.53;5070926;28;20028;-69
2023/10/30 08:35:02;;;;;;;6.47;1.80;;;;;;;15.31;70.90;99954.50;5079648;28;20024;-69
2023/10/30 08:37:27;;;;;;;7.00;1.60;;;;;;;15.22;70.96;99957.81;5080636;28;20530;-69
2023/10/30 08:39:53;;;;;;;6.63;1.20;;;;;;;15.07;71.52;99965.13;5080894;28;20043;-69
2023/10/30 08:42:18;;;;;;;6.65;1.83;;;;;;;15.23;72.10;99947.06;5078922;28;20467;-69
2023/10/30 08:44:43;;;;;;;4.63;1.00;;;;;;;15.53;70.93;99949.28;5081258;28;20024;-69
2023/10/30 08:47:09;;;;;;;5.82;1.63;;;;;;;15.39;70.47;99946.78;5082862;28;20521;-69
2023/10/30 08:49:34;;;;;;;6.68;1.92;;;;;;;14.98;71.72;99947.16;5081774;28;20028;-69
2023/10/30 08:51:59;;;;;;;6.00;1.40;;;;;;;14.83;72.94;99948.25;5079081;28;20074;-68
2023/10/30 08:54:25;;;;;;;6.97;1.58;;;;;;;14.75;73.63;99952.34;5077523;28;20432;-69
2023/10/30 08:56:50;;;;;;;7.82;1.20;;;;;;;14.57;73.89;99960.78;5080061;28;20039;-68
2023/10/30 08:59:16;;;;;;;6.97;2.10;;;;;;;14.40;75.17;99961.91;5079173;28;20430;-68
2023/10/30 09:01:41;;;;;;;4.80;1.20;;;;;;;14.40;74.59;99951.28;5079916;28;20034;-71
2023/10/30 09:04:06;;;;;;;5.57;1.80;;;;;;;14.32;75.38;99951.84;5078793;28;20062;-70
2023/10/30 09:06:32;;;;;;;8.57;1.88;;;;;;;14.24;76.24;99959.50;5077841;28;20589;-71
2023/10/30 09:08:57;;;;;;;7.40;1.30;;;;;;;14.64;75.03;99957.59;5080242;28;20042;-71
2023/10/30 09:11:23;;;;;;;8.05;1.75;;;;;;;14.54;74.69;99957.34;5082206;28;20038;-71
2023/10/30 09:13:49;;;;;;;6.85;1.38;;;;;;;14.38;74.69;99969.16;5081938;28;20051;-71
2023/10/30 09:16:14;;;;;;;5.22;1.63;;;;;;;14.18;75.67;99967.91;5079953;28;20031;-71
2023/10/30 09:18:39;;;;;;;6.30;1.30;;;;;;;14.12;76.47;99961.16;5077092;28;20052;-71
2023/10/30 09:21:05;;;;;;;4.60;2.13;;;;;;;14.16;76.19;99960.00;5074035;28;20039;-71
2023/10/30 09:23:30;;;;;;;8.43;1.60;;;;;;;14.11;76.43;99956.81;5081972;28;20016;-71
2023/10/30 09:25:55;;;;;;;8.15;1.63;;;;;;;14.12;77.02;99953.19;5080246;28;20059;-69
2023/10/30 09:28:21;;;;;;;7.93;1.88;;;;;;;14.12;77.65;99939.06;5084663;28;20040;-69
2023/10/30 09:30:46;;;;;;;8.75;1.90;;;;;;;13.95;77.17;99943.75;5085797;28;20452;-69
2023/10/30 09:33:11;;;;;;;3.90;1.52;;;;;;;13.92;78.29;99941.28;5084031;28;20069;-69
2023/10/30 09:35:38;;;;;;;3.90;1.23;;;;;;;13.98;77.79;99950.63;5083039;28;20024;-69
2023/10/30 09:38:04;;;;;;;7.32;1.67;;;;;;;13.99;78.35;99944.41;5082626;28;20487;-69
2023/10/30 09:40:29;;;;;;;4.93;1.20;;;;;;;13.84;78.18;99946.25;5083485;28;20035;-71
2023/10/30 09:42:55;;;;;;;11.65;1.65;;;;;;;13.82;78.68;99944.69;5085359;28;20080;-71
2023/10/30 09:45:23;;;;;;;9.10;1.63;;;;;;;13.77;79.53;99950.31;5078899;28;20032;-71
2023/10/30 09:47:53;;;;;;;8.98;1.70;;;;;;;13.70;80.14;99947.19;5084758;28;20024;-71
2023/10/30 09:50:20;;;;;;;8.18;1.65;;;;;;;13.78;79.98;99939.56;5082696;28;20349;-71
2023/10/30 09:52:48;;;;;;;4.40;1.30;;;;;;;13.94;79.12;99943.84;5077431;28;20017;-71
2023/10/30 09:55:17;;;;;;;4.05;2.20;;;;;;;13.89;78.30;99935.31;5085228;28;20111;-71
2023/10/30 09:57:43;;;;;;;4.47;1.05;;;;;;;13.92;79.77;99935.13;5084640;28;20028;-71
2023/10/30 10:00:09;;;;;;;5.25;1.50;;;;;;;13.93;80.04;99927.03;5082219;28;20094;-71
2023/10/30 10:02:34;;;;;;;7.40;1.55;;;;;;;13.97;78.99;99919.72;5080600;28;20039;-71
2023/10/30 10:05:00;;;;;;;9.55;1.75;;;;;;;13.97;80.02;99922.38;5082885;28;20384;-71
2023/10/30 10:07:26;;;;;;;6.55;1.30;;;;;;;14.03;79.54;99916.63;5082050;28;20048;-71
2023/10/30 10:10:01;;;;;;;6.07;1.05;;;;;;;14.11;78.97;99908.13;5082478;28;20024;-71
2023/10/30 10:12:28;;;;;;;5.15;1.20;;;;;;;14.13;78.22;99907.09;5078634;28;20103;-71
2023/10/30 10:14:54;;;;;;;3.65;1.38;;;;;;;14.24;78.25;99915.13;5084809;28;20028;-71
2023/10/30 10:17:19;;;;;;;9.27;1.60;;;;;;;14.20;78.29;99904.81;5082918;28;20020;-71
2023/10/30 10:19:48;;;;;;;6.10;1.20;;;;;;;14.27;78.00;99909.63;5085173;28;20020;-71
2023/10/30 10:22:32;;;;;;;4.05;1.27;;;;;;;14.27;78.81;99908.78;5083373;28;20048;-71
2023/10/30 10:24:59;;;;;;;3.67;1.10;;;;;;;14.29;77.38;99912.16;5084613;28;20062;-71
2023/10/30 10:27:25;;;;;;;8.75;2.00;;;;;;;14.30;78.36;99909.38;5082903;28;20031;-71
2023/10/30 10:29:54;;;;;;;6.05;1.13;;;;;;;14.35;78.18;99913.53;5081836;28;20387;-71
2023/10/30 10:32:27;;;;;;;5.22;1.30;;;;;;;14.43;77.63;99921.81;5081421;28;20118;-71
2023/10/30 10:34:54;;;;;;;;;;;;;;;14.54;77.49;99922.78;5081308;28;20033;-71
2023/10/30 10:37:19;;;;;;;4.65;1.33;;;;;;;14.48;77.21;99903.75;5080521;28;20292;-70
2023/10/30 10:39:50;;;;;;;6.22;1.48;;;;;;;14.47;77.83;99907.34;5085070;28;20039;-68
2023/10/30 10:42:20;;;;;;;5.05;1.30;;;;;;;14.52;78.14;99903.44;5077015;28;20021;-68
2023/10/30 10:44:46;;;;;;;4.90;1.08;;;;;;;14.63;78.04;99896.47;5079590;28;20048;-68
2023/10/30 10:47:12;;;;;;;7.50;1.13;;;;;;;14.67;77.42;99904.13;5077404;28;20799;-69
2023/10/30 10:49:38;;;;;;;4.60;1.45;;;;;;;14.74;77.59;99908.06;5080993;28;20114;-68
2023/10/30 10:52:08;;;;;;;4.22;1.17;;;;;;;14.73;76.47;99905.50;5080730;28;20035;-69
2023/10/30 10:54:37;;;;;;;4.13;1.10;;;;;;;14.70;76.83;99908.41;5080482;28;20110;-69
2023/10/30 10:57:05;;;;;;;4.10;1.10;;;;;;;14.73;75.67;99901.03;5071689;28;20025;-69
2023/10/30 10:59:34;;;;;;;4.00;1.63;;;;;;;14.91;75.86;99893.50;5080870;28;20077;-69
2023/10/30 11:02:02;;;;;;;3.92;0.88;;;;;;;14.97;75.26;99892.25;5079805;28;20032;-69
2023/10/30 11:04:29;;;;;;;4.72;0.90;;;;;;;14.95;75.52;99889.66;5083519;28;20048;-70
2023/10/30 11:07:08;;;;;;;3.58;1.08;;;;;;;14.91;75.71;99890.00;5081672;28;20016;-70
2023/10/30 11:09:41;;;;;;;9.60;1.38;;;;;;;14.87;76.03;99896.50;5079542;28;20033;-70
2023/10/30 11:12:33;;;;;;;6.57;1.20;;;;;;;15.00;74.96;99890.19;5078670;28;20530;-69
2023/10/30 11:15:09;;;;;;;3.50;1.05;;;;;;;14.98;75.10;99883.28;5083033;28;20032;-69
2023/10/30 11:17:36;;;;;;;4.28;0.95;;;;;;;14.98;75.69;99883.28;5084649;28;20020;-69
2023/10/30 11:20:03;;;;;;;5.70;1.10;;;;;;;15.03;75.40;99881.13;5084271;28;20032;-69
2023/10/30 11:22:42;;;;;;;3.97;0.85;;;;;;;15.02;75.87;99866.97;5075522;28;20053;-69
2023/10/30 11:25:53;;;;;;;5.15;0.90;;;;;;;15.00;74.87;99870.69;5073827;28;20496;-69
2023/10/30 11:28:18;;;;;;;3.35;1.00;;;;;;;14.94;74.81;99864.03;5083015;28;20487;-69